Latest Weather Observations for Murrurundi Gap

IDN60801

Issued at 8:05 am EDT Thursday 23 October 2014 (issued every 30 minutes, with the page automatically refreshed every 10 minutes)

About weather observations | Map of weather stations | Latest weather observations for NSW | Other Formats
Station Details ID: 061392 Name: MURRURUNDI GAP AWS Lat: -31.74 Lon: 150.79 Height: 729.4 m
Data from the previous 72 hours. | See also: Recent months for locations in New South Wales
Date/Time
EDT
Temp
°C
App
Temp
°C
Dew
Point
Rel
Hum
%
Delta-T
°C
Wind Press
QNH
hPa
Press
MSL
hPa
Rain
since 9 am
mm
Dir
 
Spd
km/h
Gust
km/h
Spd
kts
Gust
kts
23/08:00am 18.9 14.1 7.4 47 6.0 NNW 22 28 12 15 1021.8 1019.7 0.0
23/07:30am 18.6 15.1 7.1 47 6.0 NW 15 19 8 10 1021.8 1019.7 0.0
23/07:00am 17.6 13.6 6.5 48 5.7 NW 17 22 9 12 1021.7 1019.6 0.0
23/06:30am 17.5 12.5 6.4 48 5.7 NW 22 26 12 14 1021.3 1019.3 0.0
23/06:00am 16.8 11.8 6.3 50 5.3 NW 22 24 12 13 1021.1 1019.0 0.0
23/05:30am 17.2 12.2 6.4 49 5.5 NW 22 24 12 13 1020.8 1018.7 0.0
23/05:00am 16.8 11.8 6.6 51 5.2 NW 22 24 12 13 1020.7 1018.6 0.0
23/04:30am 17.4 13.0 6.6 49 5.5 NW 19 20 10 11 1020.7 1018.6 0.0
23/04:00am 17.7 13.4 6.9 49 5.6 NNW 19 22 10 12 1020.8 1018.7 0.0
23/03:30am 17.2 12.8 7.3 52 5.2 NW 20 22 11 12 1021.0 1018.9 0.0
23/03:00am 17.0 12.8 7.6 54 4.9 NNW 19 22 10 12 1021.2 1019.1 0.0
23/02:30am 17.6 13.4 7.4 51 5.3 NW 19 22 10 12 1021.2 1019.1 0.0
23/02:00am 18.5 14.3 7.3 48 5.9 NW 19 20 10 11 1021.3 1019.3 0.0
23/01:30am 19.1 15.2 7.2 46 6.3 NW 17 19 9 10 1021.4 1019.4 0.0
23/01:00am 19.3 15.8 7.4 46 6.3 WNW 15 17 8 9 1021.8 1019.7 0.0
23/12:30am 19.8 16.8 7.5 45 6.5 WNW 13 15 7 8 1021.9 1019.8 0.0
23/12:00am 18.9 16.3 7.7 48 5.9 WNW 11 13 6 7 1022.2 1020.1 0.0
 
Date/Time
EDT
Temp
°C
App
Temp
°C
Dew
Point
Rel
Hum
%
Delta-T
°C
Wind Press
QNH
hPa
Press
MSL
hPa
Rain
since 9 am
mm
Dir
 
Spd
km/h
Gust
km/h
Spd
kts
Gust
kts
22/11:30pm 19.1 18.5 7.2 46 6.3 CALM 0 4 0 2 1022.2 1020.1 0.0
22/11:00pm 18.9 17.0 7.4 47 6.0 ESE 7 9 4 5 1022.3 1020.2 0.0
22/10:30pm 18.8 16.5 7.6 48 5.9 ESE 9 11 5 6 1022.5 1020.5 0.0
22/10:00pm 18.3 15.8 8.0 51 5.4 ESE 11 13 6 7 1022.6 1020.6 0.0
22/09:30pm 18.0 15.2 8.6 54 5.0 ESE 13 15 7 8 1022.4 1020.3 0.0
22/09:00pm 18.1 15.3 8.7 54 5.0 ESE 13 15 7 8 1022.3 1020.2 0.0
22/08:30pm 18.4 15.6 8.7 53 5.2 ESE 13 15 7 8 1022.2 1020.1 0.0
22/08:00pm 18.8 15.7 8.7 52 5.4 SSE 15 20 8 11 1022.2 1020.1 0.0
22/07:30pm 19.9 16.4 8.6 48 6.1 SE 17 20 9 11 1022.0 1019.9 0.0
22/07:00pm 20.3 16.8 8.6 47 6.3 SE 17 20 9 11 1021.9 1019.8 0.0
22/06:30pm 21.1 17.5 8.4 44 6.9 SE 17 22 9 12 1022.0 1019.9 0.0
22/06:00pm 21.7 17.7 8.2 42 7.3 ESE 19 22 10 12 1022.0 1019.9 0.0
22/05:30pm 22.4 18.8 8.5 41 7.6 ESE 17 22 9 12 1022.1 1020.0 0.0
22/05:00pm 22.7 18.7 8.4 40 7.8 ESE 19 24 10 13 1022.2 1020.1 0.0
22/04:30pm 23.3 21.4 9.0 40 7.9 SSE 9 19 5 10 1022.3 1020.2 0.0
22/04:00pm 22.7 19.1 8.4 40 7.8 SSE 17 26 9 14 1022.4 1020.3 0.0
22/03:30pm 22.9 20.4 8.2 39 8.0 S 11 20 6 11 1022.8 1020.8 0.0
22/03:00pm 23.3 20.5 8.6 39 8.1 SE 13 22 7 12 1023.2 1021.1 0.0
22/02:30pm 23.7 22.0 8.2 37 8.5 SSE 7 17 4 9 1023.7 1021.7 0.0
22/02:00pm 22.7 21.0 8.4 40 7.8 NNW 7 20 4 11 1024.2 1022.2 0.0
22/01:30pm 21.5 17.6 7.3 40 7.6 NW 17 24 9 13 1024.6 1022.5 0.0
22/01:00pm 20.2 15.9 7.2 43 6.8 NNW 19 24 10 13 1025.0 1023.0 0.0
22/12:30pm 19.4 15.4 6.8 44 6.6 NNW 17 24 9 13 1025.6 1023.6 0.0
22/12:00pm 19.2 16.0 7.0 45 6.4 N 13 24 7 13 1025.9 1023.9 0.0
22/11:30am 18.5 15.2 7.9 50 5.6 NW 15 22 8 12 1026.5 1024.5 0.0
22/11:00am 17.2 13.1 6.4 49 5.5 WNW 17 24 9 13 1026.7 1024.7 0.0
22/10:30am 15.9 11.7 5.8 51 5.1 NW 17 22 9 12 1027.0 1025.0 0.0
22/10:00am 15.4 11.3 6.4 55 4.5 NNW 17 24 9 13 1027.1 1025.1 0.0
22/09:30am 14.6 12.1 6.4 58 4.1 NW 9 15 5 8 1027.2 1025.2 0.0
22/09:00am 13.4 11.3 6.0 61 3.6 NNE 6 9 3 5 1027.2 1025.2 0.0
22/08:30am 12.1 9.7 7.0 71 2.5 E 9 13 5 7 1027.1 1025.1 0.0
22/08:00am 10.8 7.2 6.6 75 2.1 ESE 15 17 8 9 1027.0 1025.0 0.0
22/07:30am 9.8 6.3 7.1 83 1.3 ESE 15 19 8 10 1026.8 1024.8 0.0
22/07:00am 8.7 4.9 7.5 92 0.6 SE 17 19 9 10 1026.7 1024.7 0.0
22/06:30am 7.6 3.7 6.9 95 0.3 ESE 17 20 9 11 1026.5 1024.5 0.0
22/06:00am 7.1 2.7 6.4 95 0.3 SE 19 20 10 11 1026.3 1024.3 0.0
22/05:30am 7.1 2.4 6.2 94 0.4 SE 20 28 11 15 1026.1 1024.0 0.0
22/05:00am 7.9 3.0 7.0 94 0.4 SSE 22 28 12 15 1026.2 1024.2 0.0
22/04:30am 7.8 2.6 7.2 96 0.3 SE 24 28 13 15 1026.2 1024.2 0.0
22/04:00am 7.2 1.9 6.9 98 0.1 SE 24 30 13 16 1026.3 1024.3 0.0
22/03:30am 7.8 1.4 7.1 95 0.3 SE 30 35 16 19 1026.3 1024.3 0.0
22/03:00am 8.4 1.6 7.0 91 0.7 SSE 32 39 17 21 1026.5 1024.5 0.0
22/02:30am 8.6 1.9 7.4 92 0.6 SSE 32 37 17 20 1026.9 1024.9 0.0
22/02:00am 9.1 2.4 7.4 89 0.8 SSE 32 39 17 21 1027.3 1025.4 0.0
22/01:30am 9.4 2.6 7.7 89 0.8 SSE 33 39 18 21 1027.8 1025.8 0.0
22/01:00am 9.4 2.2 7.5 88 0.9 SSE 35 44 19 24 1028.1 1026.1 0.0
22/12:30am 9.3 2.5 7.6 89 0.8 SSE 33 41 18 22 1028.5 1026.6 0.0
22/12:00am 9.5 2.7 7.6 88 0.9 SSE 33 39 18 21 1029.0 1027.0 0.0
 
Date/Time
EDT
Temp
°C
App
Temp
°C
Dew
Point
Rel
Hum
%
Delta-T
°C
Wind Press
QNH
hPa
Press
MSL
hPa
Rain
since 9 am
mm
Dir
 
Spd
km/h
Gust
km/h
Spd
kts
Gust
kts
21/11:30pm 9.6 2.4 7.5 87 1.0 SSE 35 44 19 24 1028.8 1026.9 0.0
21/11:00pm 9.8 2.6 7.6 86 1.1 SSE 35 43 19 23 1028.8 1026.9 0.0
21/10:30pm 10.0 2.0 7.4 84 1.3 S 39 46 21 25 1028.7 1026.8 0.0
21/10:00pm 10.2 2.6 7.4 83 1.4 SSE 37 43 20 23 1028.8 1026.9 0.0
21/09:30pm 10.5 3.8 7.4 81 1.5 SSE 32 39 17 21 1029.0 1027.0 0.0
21/09:00pm 11.1 4.8 7.4 78 1.8 SSE 30 43 16 23 1029.1 1027.1 0.0
21/08:30pm 11.7 6.2 7.6 76 2.1 SSE 26 33 14 18 1028.8 1026.9 0.0
21/08:00pm 12.3 6.8 7.4 72 2.5 SSE 26 39 14 21 1028.5 1026.6 0.0
21/07:30pm 12.9 7.4 7.4 69 2.8 SE 26 35 14 19 1028.2 1026.2 0.0
21/07:00pm 13.7 7.8 7.7 67 3.1 S 28 41 15 22 1028.1 1026.1 0.0
21/06:30pm 14.6 9.2 8.1 65 3.4 S 26 35 14 19 1027.8 1025.8 0.0
21/06:00pm 15.4 9.3 8.4 63 3.7 S 30 39 16 21 1027.5 1025.5 0.0
21/05:30pm 16.0 9.6 8.7 62 3.9 S 32 46 17 25 1027.2 1025.2 0.0
21/05:00pm 16.4 10.0 8.4 59 4.2 S 32 44 17 24 1027.1 1025.1 0.0
21/04:30pm 17.1 11.1 8.8 58 4.4 S 30 37 16 20 1027.1 1025.1 0.0
21/04:00pm 17.7 11.2 9.1 57 4.6 SSE 33 44 18 24 1027.1 1025.1 0.0
21/03:49pm 17.5 11.9 8.6 56 4.8 S 28 46 15 25 1027.3 1025.4 0.0
21/03:30pm 18.4 12.8 8.7 53 5.2 SSE 28 37 15 20 1027.6 1025.6 0.0
21/03:00pm 18.3 12.0 9.1 55 5.0 SE 32 43 17 23 1027.8 1025.8 0.0
21/02:30pm 17.9 10.9 8.5 54 5.0 SE 35 50 19 27 1028.2 1026.2 0.0
21/02:21pm 18.0 11.6 8.6 54 5.0 SE 32 50 17 27 1028.2 1026.2 0.0
21/02:00pm 18.0 12.0 8.8 55 4.9 SE 30 43 16 23 1028.6 1026.7 0.0
21/01:30pm 16.8 10.3 8.0 56 4.6 SE 32 46 17 25 1029.3 1027.3 0.0
21/01:12pm 16.3 8.8 8.0 58 4.4 SSE 37 44 20 24 1029.5 1027.5 0.0
21/01:00pm 17.5 11.2 8.9 57 4.6 SE 32 44 17 24 1029.7 1027.7 0.0
21/12:30pm 16.4 10.0 8.4 59 4.2 SE 32 43 17 23 1029.9 1028.0 0.0
21/12:00pm 16.7 10.5 9.4 62 3.9 ESE 32 46 17 25 1030.2 1028.3 0.0
21/11:30am 15.1 7.3 8.1 63 3.7 SE 39 50 21 27 1030.3 1028.4 0.0
21/11:25am 14.5 5.7 7.3 62 3.7 SE 43 50 23 27 1030.2 1028.3 0.0
21/11:22am 15.4 8.3 8.2 62 3.8 E 35 43 19 23 1030.2 1028.3 0.0
21/11:00am 14.1 6.7 8.5 69 2.9 SE 37 46 20 25 1030.6 1028.6 0.0
21/10:30am 13.3 6.3 8.6 73 2.4 SE 35 46 19 25 1030.7 1028.7 0.0
21/10:00am 12.9 5.6 8.8 76 2.1 SE 37 46 20 25 1030.8 1028.8 0.0
21/09:30am 12.4 5.8 8.7 78 1.9 ESE 33 43 18 23 1030.9 1028.9 0.0
21/09:00am 11.8 5.4 9.4 85 1.2 SE 33 41 18 22 1030.7 1028.7 0.0
21/08:30am 11.2 4.9 9.8 91 0.7 SE 33 39 18 21 1030.1 1028.2 0.0
21/08:00am 10.3 4.3 10.1 99 0.1 SE 32 39 17 21 1029.9 1028.0 0.0
21/07:30am 9.4 3.2 9.3 99 0.1 SSE 32 39 17 21 1029.5 1027.5 0.0
21/07:19am 9.3 2.5 9.2 99 0.1 SSE 35 43 19 23 1029.3 1027.3 0.0
21/07:00am 9.1 2.8 9.0 99 0.1 SE 32 39 17 21 1029.1 1027.1 0.0
21/06:31am 8.9 2.4 8.8 99 0.1 SSE 33 39 18 21 1028.5 1026.6 0.0
21/06:30am 9.0 2.5 8.9 99 0.1 SSE 33 39 18 21 1028.5 1026.6 0.0
21/06:00am 9.0 2.1 8.9 99 0.1 SE 35 44 19 24 1028.0 1026.0 0.0
21/05:30am 9.1 2.2 9.0 99 0.1 SSE 35 41 19 22 1028.0 1026.0 0.0
21/05:18am 9.2 2.4 9.1 99 0.1 SSE 35 41 19 22 1027.9 1025.9 0.0
21/05:16am 9.2 2.4 9.1 99 0.1 SSE 35 41 19 22 1027.8 1025.8 0.0
21/05:02am 9.3 2.5 9.2 99 0.1 SSE 35 41 19 22 1027.8 1025.8 0.0
21/05:00am 9.3 2.5 9.2 99 0.1 SSE 35 41 19 22 1027.9 1025.9 0.0
21/04:30am 9.8 3.5 9.7 99 0.1 SSE 33 41 18 22 1027.9 1025.9 0.0
21/04:22am 9.7 3.0 9.6 99 0.1 SSE 35 43 19 23 1028.0 1026.0 0.0
21/04:00am 9.7 2.6 9.6 99 0.1 SSE 37 44 20 24 1027.9 1025.9 0.0
21/03:35am 9.7 2.6 9.6 99 0.1 SSE 37 44 20 24 1027.8 1025.8 0.0
21/03:33am 9.7 2.6 9.6 99 0.1 SSE 37 44 20 24 1027.8 1025.8 0.0
21/03:30am 9.7 2.6 9.6 99 0.1 SSE 37 44 20 24 1027.8 1025.8 0.0
21/03:00am 9.9 2.4 9.6 98 0.2 SSE 39 46 21 25 1027.9 1025.9 0.0
21/02:30am 10.3 3.2 9.7 96 0.3 SSE 37 46 20 25 1027.9 1025.9 0.0
21/02:00am 10.6 3.2 9.8 95 0.4 SSE 39 46 21 25 1028.1 1026.1 0.0
21/01:30am 10.7 3.4 10.2 97 0.3 SSE 39 48 21 26 1028.3 1026.3 0.0
21/01:21am 10.6 3.3 10.1 97 0.3 SSE 39 48 21 26 1028.2 1026.2 0.0
21/01:00am 10.7 3.8 10.4 98 0.2 SSE 37 46 20 25 1028.4 1026.4 0.0
21/12:30am 10.9 3.3 10.6 98 0.2 SSE 41 50 22 27 1028.5 1026.6 0.0
21/12:00am 11.2 2.7 10.7 97 0.3 SSE 46 54 25 29 1028.5 1026.6 0.0
 
Date/Time
EDT
Temp
°C
App
Temp
°C
Dew
Point
Rel
Hum
%
Delta-T
°C
Wind Press
QNH
hPa
Press
MSL
hPa
Rain
since 9 am
mm
Dir
 
Spd
km/h
Gust
km/h
Spd
kts
Gust
kts
20/11:30pm 11.4 2.9 10.8 96 0.3 SSE 46 54 25 29 1028.5 1026.6 0.0
20/11:20pm 11.6 3.1 10.8 95 0.4 SSE 46 54 25 29 1028.6 1026.7 0.0
20/11:00pm 11.7 3.6 10.8 94 0.5 SSE 44 57 24 31 1028.6 1026.7 0.0
20/10:30pm 11.9 2.7 11.0 94 0.5 SSE 50 61 27 33 1028.2 1026.2 0.0
20/10:00pm 11.9 2.8 11.1 95 0.4 SSE 50 63 27 34 1028.1 1026.1 0.0
20/09:30pm 12.1 3.2 10.7 91 0.8 SSE 48 59 26 32 1028.2 1026.2 0.0
20/09:00pm 13.1 2.6 10.3 83 1.5 SSE 56 70 30 38 1027.3 1025.4 0.0
20/08:30pm 14.3 4.2 9.1 71 2.8 SSE 52 65 28 35 1027.2 1025.2 0.0
20/08:00pm 14.7 5.1 9.3 70 2.9 SSE 50 61 27 33 1027.2 1025.2 0.0
20/07:30pm 14.7 4.7 9.3 70 2.9 SSE 52 61 28 33 1026.8 1024.8 0.0
20/07:00pm 15.1 6.2 9.2 68 3.1 SE 46 57 25 31 1026.6 1024.6 0.0
20/06:30pm 15.4 6.1 9.3 67 3.3 SSE 48 59 26 32 1026.5 1024.5 0.0
20/06:00pm 15.9 7.2 9.8 67 3.3 SSE 46 57 25 31 1026.4 1024.4 0.0
20/05:30pm 16.0 8.2 9.9 67 3.3 S 41 54 22 29 1026.5 1024.5 0.0
20/05:00pm 16.5 8.4 9.9 65 3.6 S 43 67 23 36 1025.9 1023.9 0.0
20/04:30pm 17.2 9.9 10.3 64 3.8 SSE 39 48 21 26 1026.4 1024.4 0.0
20/04:19pm 17.2 10.6 10.1 63 3.9 SSE 35 54 19 29 1026.3 1024.3 0.0
20/04:00pm 18.2 11.4 10.6 61 4.2 SSE 37 46 20 25 1026.5 1024.5 0.0
20/03:30pm 18.2 11.9 11.0 63 4.0 SSE 35 48 19 26 1026.7 1024.7 0.0
20/03:07pm 18.3 12.0 11.1 63 4.0 S 35 54 19 29 1027.0 1025.0 0.0
20/03:00pm 17.9 10.8 10.8 63 3.9 S 39 56 21 30 1026.8 1024.8 0.0
20/02:53pm 18.5 11.8 11.1 62 4.2 SSE 37 56 20 30 1026.9 1024.9 0.0
20/02:30pm 17.8 11.0 10.7 63 4.0 S 37 52 20 28 1027.1 1025.1 0.0
20/02:00pm 18.4 11.5 11.7 65 3.8 S 39 59 21 32 1027.3 1025.4 0.0
20/01:46pm 18.3 11.3 11.4 64 3.9 S 39 57 21 31 1027.2 1025.2 0.0
20/01:30pm 18.9 12.6 12.2 65 3.9 S 37 52 20 28 1027.6 1025.6 0.0
20/01:00pm 19.6 14.2 12.8 65 3.9 SSE 33 52 18 28 1027.6 1025.6 0.0
20/12:50pm 19.7 14.3 12.7 64 4.1 S 33 52 18 28 1027.6 1025.6 0.0
20/12:30pm 19.6 13.7 12.4 63 4.2 S 35 48 19 26 1027.7 1025.7 0.0
20/12:29pm 19.3 13.2 11.8 62 4.3 S 35 48 19 26 1027.8 1025.8 0.0
20/12:26pm 19.1 12.6 11.7 62 4.2 SSE 37 44 20 24 1027.8 1025.8 0.0
20/12:00pm 19.6 13.8 11.4 59 4.6 S 33 48 18 26 1028.2 1026.2 0.0
20/11:32am 20.4 14.5 10.5 53 5.6 S 32 50 17 27 1028.2 1026.2 0.0
20/11:30am 19.7 13.4 9.6 52 5.6 S 33 50 18 27 1028.2 1026.2 0.0
20/11:00am 19.9 13.9 7.0 43 6.7 SSE 28 46 15 25 1028.4 1026.4 0.0
20/10:30am 22.4 15.7 5.8 34 8.7 SSE 30 43 16 23 1028.2 1026.2 0.0
20/10:23am 24.0 17.1 6.3 32 9.4 SSE 32 35 17 19 1027.8 1025.8 0.0
20/10:00am 24.7 22.5 6.4 31 9.7 ESE 7 17 4 9 1027.7 1025.7 0.0
20/09:30am 23.1 20.9 5.5 32 9.2 NW 6 9 3 5 1027.8 1025.8 0.0
20/09:00am 21.9 18.9 4.0 31 9.0 NNW 9 11 5 6 1027.3 1025.4 0.0
20/08:30am 21.1 18.0 3.8 32 8.6 NW 9 11 5 6 1027.1 1025.1 0.0

Other Formats:

Comma delimited format used in spreadsheet applications
http://www.bom.gov.au/fwo/IDN60801/IDN60801.95747.axf

JavaScript Object Notation format (JSON) in row-major order
http://www.bom.gov.au/fwo/IDN60801/IDN60801.95747.json